Viking Amber — 9V7985 — position and weather

sailwx.info

Track history (hours):
 
Tides and Currents Weather Stations Pressure Air Temp Water Temp Dewpoint Dewpoint Depression Visibility Wind Speed Wind Dir Waves Ship Positions

Viking Amber

Last reported at 2018-Apr-20 15:21 UTC. Time now 2018-Apr-23 02:10 UTC.
Position S 36°22' E 175°19'.

Length 167 m; draft 7.3 m.

Type: Cargo ship. MMSI: 563255000.

Date/timePositionNaut miles runAvg speedWind from/ knotsBaromVisibWave heightAir tempDewpointWater temp
2018-Apr-20 15:21S 36°22' E 175°19'3 9.8
2018-Apr-20 15:00S 36°23' E 175°15'6 9.9
2018-Apr-20 14:24S 36°28' E 175°10'410.2
2018-Apr-20 13:58S 36°31' E 175°07'510.1
2018-Apr-20 13:30S 36°34' E 175°02'5 9.9
2018-Apr-20 13:00S 36°38' E 174°58'5 9.9
2018-Apr-20 12:30S 36°41' E 174°54'5 9.9
2018-Apr-20 12:00S 36°45' E 174°50'5 9.6
2018-Apr-20 11:31S 36°50' E 174°49'3 0.6
2018-Apr-20 07:16S 36°51' E 174°46'0 0.0
2018-Apr-20 06:58S 36°51' E 174°46'0 0.0
2018-Apr-20 05:58S 36°51' E 174°46'0 0.0
2018-Apr-20 05:04S 36°51' E 174°46'0 0.0
2018-Apr-20 04:34S 36°51' E 174°46'0 0.0
2018-Apr-20 04:22S 36°51' E 174°46'0 0.0
2018-Apr-20 03:58S 36°51' E 174°46'0 0.0
2018-Apr-20 03:10S 36°51' E 174°46'0 0.0
2018-Apr-20 02:52S 36°51' E 174°46'0 0.0
2018-Apr-20 02:22S 36°51' E 174°46'0 0.0
2018-Apr-20 01:58S 36°51' E 174°46'0 0.0
2018-Apr-20 01:22S 36°51' E 174°46'0 0.0
2018-Apr-19 17:58S 36°51' E 174°46'0 0.0
2018-Apr-19 17:28S 36°51' E 174°46'0 0.0
2018-Apr-19 16:58S 36°51' E 174°46'0 0.0
2018-Apr-19 16:22S 36°51' E 174°46'0 0.0
2018-Apr-19 15:58S 36°51' E 174°46'0 0.0
2018-Apr-19 15:28S 36°51' E 174°46'0 0.0
2018-Apr-19 14:58S 36°51' E 174°46'0 0.0
2018-Apr-19 14:28S 36°51' E 174°46'0 0.0
2018-Apr-19 13:46S 36°51' E 174°46'0 0.0
2018-Apr-19 13:28S 36°51' E 174°46'0 0.0
2018-Apr-19 12:58S 36°51' E 174°46'1 0.0
2018-Apr-17 18:28S 36°51' E 174°47'1 1.3
2018-Apr-17 17:59S 36°50' E 174°48'4 8.2
2018-Apr-17 17:30S 36°46' E 174°49'3 6.4
2018-Apr-17 17:00S 36°44' E 174°51'1 1.7
2018-Apr-17 16:30S 36°43' E 174°51'0 0.3
2018-Apr-17 15:59S 36°43' E 174°51'0 0.0
2018-Apr-17 15:29S 36°43' E 174°51'0 0.0
2018-Apr-17 14:59S 36°43' E 174°51'0 0.0
2018-Apr-17 14:29S 36°43' E 174°51'0 0.1
2018-Apr-17 13:59S 36°43' E 174°51'0 0.0
2018-Apr-17 13:29S 36°43' E 174°51'0 0.0
2018-Apr-17 12:59S 36°43' E 174°51'0 0.0
2018-Apr-17 12:29S 36°43' E 174°51'0 0.0
2018-Apr-17 11:59S 36°43' E 174°51'0 0.0
2018-Apr-17 11:29S 36°43' E 174°51'0 0.1
2018-Apr-17 10:47S 36°43' E 174°51'0 0.0
2018-Apr-17 10:29S 36°43' E 174°51'0 0.1
2018-Apr-17 09:59S 36°43' E 174°51'0 0.1
2018-Apr-17 09:29S 36°43' E 174°51'0 0.1
2018-Apr-17 08:59S 36°43' E 174°51'0 0.1
2018-Apr-17 08:29S 36°43' E 174°51'0 0.1
2018-Apr-17 07:59S 36°43' E 174°51'0 0.1
2018-Apr-17 07:29S 36°43' E 174°51'0 0.1
2018-Apr-17 06:59S 36°43' E 174°51'0 0.1
2018-Apr-17 06:29S 36°43' E 174°51'0 0.1
2018-Apr-17 05:59S 36°43' E 174°51'0 0.1
2018-Apr-17 05:29S 36°43' E 174°51'0 0.1
2018-Apr-17 04:59S 36°43' E 174°51'0 0.1
2018-Apr-17 04:29S 36°43' E 174°51'0 0.1
2018-Apr-17 03:59S 36°43' E 174°51'0 0.1
2018-Apr-17 03:29S 36°43' E 174°51'0 0.1
2018-Apr-17 02:59S 36°43' E 174°51'0 0.1
2018-Apr-17 02:29S 36°43' E 174°51'0 0.1
2018-Apr-17 01:59S 36°43' E 174°51'0 0.1
2018-Apr-17 01:29S 36°43' E 174°51'0 0.1
2018-Apr-17 00:59S 36°43' E 174°51'0 0.1
2018-Apr-17 00:29S 36°43' E 174°51'0 0.1
2018-Apr-16 23:59S 36°43' E 174°51'0 0.1
2018-Apr-16 23:29S 36°43' E 174°51'0 0.0
2018-Apr-16 22:59S 36°43' E 174°51'0 0.0
2018-Apr-16 22:29S 36°43' E 174°51'0 0.1
2018-Apr-16 21:59S 36°43' E 174°51'0 0.1
2018-Apr-16 21:29S 36°43' E 174°51'0 0.0
2018-Apr-16 20:59S 36°43' E 174°51'0 0.0
2018-Apr-16 20:29S 36°43' E 174°51'0 0.0
2018-Apr-16 19:59S 36°43' E 174°51'0 0.0
2018-Apr-16 19:29S 36°43' E 174°51'0 0.0
2018-Apr-16 18:59S 36°43' E 174°51'0 0.0
2018-Apr-16 18:29S 36°43' E 174°51'0 0.0
2018-Apr-16 17:59S 36°43' E 174°51'0 0.0
2018-Apr-16 17:29S 36°43' E 174°51'0 0.0
2018-Apr-16 16:59S 36°43' E 174°51'0 0.0
2018-Apr-16 16:29S 36°43' E 174°51'0 0.0
2018-Apr-16 15:59S 36°43' E 174°51'0 0.0
2018-Apr-16 15:29S 36°43' E 174°51'0 0.0
2018-Apr-16 14:59S 36°43' E 174°51'0 0.0
2018-Apr-16 14:29S 36°43' E 174°51'0 0.0
2018-Apr-16 13:59S 36°43' E 174°51'0 0.0
2018-Apr-16 13:29S 36°43' E 174°51'0 0.0
2018-Apr-16 12:59S 36°43' E 174°51'0 0.0
2018-Apr-16 12:29S 36°43' E 174°51'0 0.0
2018-Apr-16 11:59S 36°43' E 174°51'0 0.0
2018-Apr-16 11:29S 36°43' E 174°51'0 0.0
2018-Apr-16 10:59S 36°43' E 174°51'0 0.0
2018-Apr-16 10:29S 36°43' E 174°51'0 0.0
2018-Apr-16 09:59S 36°43' E 174°51'0 0.1
2018-Apr-16 09:29S 36°43' E 174°51'0 0.0
2018-Apr-16 08:59S 36°43' E 174°51'0 0.1
2018-Apr-16 08:29S 36°43' E 174°51'0 0.0
2018-Apr-16 07:59S 36°43' E 174°51'0 0.1
2018-Apr-16 07:29S 36°43' E 174°51'0 0.0
2018-Apr-16 06:59S 36°43' E 174°51'0 0.0
2018-Apr-16 06:23S 36°43' E 174°51'0 0.1
2018-Apr-16 05:59S 36°43' E 174°51'0 0.1
2018-Apr-16 05:29S 36°43' E 174°51'0 0.1
2018-Apr-16 04:59S 36°43' E 174°51'0 0.1
2018-Apr-16 04:29S 36°43' E 174°51'0 0.0
2018-Apr-16 03:59S 36°43' E 174°51'0 0.1
2018-Apr-16 03:29S 36°43' E 174°51'0 0.1
2018-Apr-16 02:59S 36°43' E 174°51'0 0.0
2018-Apr-16 02:29S 36°43' E 174°51'0 0.1
2018-Apr-16 01:59S 36°43' E 174°51'0 0.0
2018-Apr-16 01:29S 36°43' E 174°51'0 0.0
2018-Apr-16 00:59S 36°43' E 174°51'0 0.1
2018-Apr-16 00:29S 36°43' E 174°51'0 0.2
2018-Apr-15 23:59S 36°43' E 174°51'0 0.2
2018-Apr-15 23:29S 36°43' E 174°51'0 0.1
2018-Apr-15 22:59S 36°43' E 174°51'0 0.1
2018-Apr-15 22:29S 36°43' E 174°51'0 0.0
2018-Apr-15 21:59S 36°43' E 174°51'0 0.1
2018-Apr-15 21:29S 36°43' E 174°51'0 0.1
2018-Apr-15 20:59S 36°43' E 174°51'0 0.0
2018-Apr-15 20:29S 36°43' E 174°51'0 0.1
2018-Apr-15 19:59S 36°43' E 174°51'0 0.1
2018-Apr-15 19:29S 36°43' E 174°51'0 0.0
2018-Apr-15 18:59S 36°43' E 174°51'0 0.0
2018-Apr-15 18:29S 36°43' E 174°51'0 0.1
2018-Apr-15 17:59S 36°43' E 174°51'0 0.1
2018-Apr-15 17:29S 36°43' E 174°51'0 0.0
2018-Apr-15 16:59S 36°43' E 174°51'0 0.0
2018-Apr-15 16:29S 36°43' E 174°51'0 0.0
2018-Apr-15 15:59S 36°43' E 174°51'0 0.0
2018-Apr-15 15:29S 36°43' E 174°51'0 0.0
2018-Apr-15 14:59S 36°43' E 174°51'0 0.0
2018-Apr-15 14:29S 36°43' E 174°51'0 0.0
2018-Apr-15 13:59S 36°43' E 174°51'0 0.1
2018-Apr-15 13:29S 36°43' E 174°51'0 0.0
2018-Apr-15 12:59S 36°43' E 174°51'0 0.0
2018-Apr-15 12:29S 36°43' E 174°51'0 0.1
2018-Apr-15 11:59S 36°43' E 174°51'0 0.1
2018-Apr-15 11:29S 36°43' E 174°51'0 0.0
2018-Apr-15 10:59S 36°43' E 174°51'0 0.1
2018-Apr-15 10:29S 36°43' E 174°51'0 0.0
2018-Apr-15 09:59S 36°43' E 174°51'0 0.1
2018-Apr-15 09:29S 36°43' E 174°51'0 0.0
2018-Apr-15 08:59S 36°43' E 174°51'0 0.0
2018-Apr-15 08:29S 36°43' E 174°51'0 0.0
2018-Apr-15 07:59S 36°43' E 174°51'0 0.1
2018-Apr-15 07:29S 36°43' E 174°51'0 0.1
2018-Apr-15 06:59S 36°43' E 174°51'0 0.1
2018-Apr-15 06:29S 36°43' E 174°51'0 0.1
2018-Apr-15 05:59S 36°43' E 174°51'0 0.0
2018-Apr-15 05:29S 36°43' E 174°51'0 0.1
2018-Apr-15 04:59S 36°43' E 174°51'0 0.1
2018-Apr-15 04:29S 36°43' E 174°51'0 0.0
2018-Apr-15 03:59S 36°43' E 174°51'0 0.1
2018-Apr-15 03:29S 36°43' E 174°51'0 0.0
2018-Apr-15 02:59S 36°43' E 174°51'0 0.0
2018-Apr-15 02:29S 36°43' E 174°51'0 0.0
2018-Apr-15 01:59S 36°43' E 174°51'0 0.0
2018-Apr-15 01:29S 36°43' E 174°51'0 0.0
2018-Apr-15 00:59S 36°43' E 174°51'0 0.0
2018-Apr-15 00:29S 36°43' E 174°51'0 0.0
2018-Apr-14 23:59S 36°43' E 174°51'0 0.0
2018-Apr-14 23:29S 36°43' E 174°51'0 0.0
2018-Apr-14 22:59S 36°43' E 174°51'0 0.0
2018-Apr-14 22:29S 36°43' E 174°51'0 0.0
2018-Apr-14 21:59S 36°43' E 174°51'0 0.0
2018-Apr-14 21:29S 36°43' E 174°51'0 0.0
2018-Apr-14 20:59S 36°43' E 174°51'0 0.0
2018-Apr-14 20:29S 36°43' E 174°51'0 0.0
2018-Apr-14 19:59S 36°43' E 174°51'0 0.0
2018-Apr-14 19:23S 36°43' E 174°51'0 0.0
2018-Apr-14 18:59S 36°43' E 174°51'0 0.0
2018-Apr-14 18:23S 36°43' E 174°51'0 0.0
2018-Apr-14 17:59S 36°43' E 174°51'0 0.0
2018-Apr-14 17:29S 36°43' E 174°51'0 0.0
2018-Apr-14 16:59S 36°43' E 174°51'0 0.0
2018-Apr-14 16:29S 36°43' E 174°51'0 0.1
2018-Apr-14 15:59S 36°43' E 174°51'0 0.1
2018-Apr-14 15:29S 36°43' E 174°51'0 0.1
2018-Apr-14 14:59S 36°43' E 174°51'0 0.0
2018-Apr-14 14:29S 36°43' E 174°51'0 0.1
2018-Apr-14 13:59S 36°43' E 174°51'0 0.0
2018-Apr-14 13:29S 36°43' E 174°51'0 0.1
2018-Apr-14 12:59S 36°43' E 174°51'0 0.1
2018-Apr-14 12:29S 36°43' E 174°51'0 0.1
2018-Apr-14 11:59S 36°43' E 174°51'0 0.0
2018-Apr-14 11:29S 36°43' E 174°51'0 0.0
2018-Apr-14 10:59S 36°43' E 174°51'0 0.1
2018-Apr-14 10:29S 36°43' E 174°51'0 0.0
2018-Apr-14 09:59S 36°43' E 174°51'0 0.1
2018-Apr-14 09:29S 36°43' E 174°51'0 0.0
2018-Apr-14 08:59S 36°43' E 174°51'0 0.0
2018-Apr-14 08:29S 36°43' E 174°51'0 0.0
2018-Apr-14 07:58S 36°43' E 174°51'0 0.0
2018-Apr-14 07:29S 36°43' E 174°51'0 0.0
2018-Apr-14 06:59S 36°43' E 174°51'0 0.0
2018-Apr-14 06:29S 36°43' E 174°51'0 0.0
2018-Apr-14 05:59S 36°43' E 174°51'0 0.0
2018-Apr-14 05:29S 36°43' E 174°51'0 0.0
2018-Apr-14 04:59S 36°43' E 174°51'0 0.0
2018-Apr-14 04:29S 36°43' E 174°51'0 0.1
2018-Apr-14 03:59S 36°43' E 174°51'0 0.1
2018-Apr-14 03:29S 36°43' E 174°51'0 0.2
2018-Apr-14 02:59S 36°43' E 174°51'0 0.1
2018-Apr-14 02:28S 36°43' E 174°51'0 0.2
2018-Apr-14 02:00S 36°43' E 174°51'0 0.6
2018-Apr-14 01:26S 36°43' E 174°51'0 0.1
2018-Apr-14 00:56S 36°43' E 174°51'0 0.1
2018-Apr-14 00:26S 36°43' E 174°51'0 0.1
2018-Apr-13 23:50S 36°43' E 174°51'0 0.2
2018-Apr-13 23:26S 36°43' E 174°51'0 0.1
2018-Apr-13 22:44S 36°43' E 174°51'0 0.2
2018-Apr-13 22:26S 36°43' E 174°51'0 0.0
2018-Apr-13 21:56S 36°43' E 174°51'0 0.0
2018-Apr-13 21:26S 36°43' E 174°51'0 0.1
2018-Apr-13 20:56S 36°43' E 174°51'0 0.1
2018-Apr-13 20:20S 36°43' E 174°51'0 0.2
2018-Apr-13 19:56S 36°43' E 174°51'0 0.0
2018-Apr-13 19:26S 36°43' E 174°51'0 0.0
2018-Apr-13 18:56S 36°43' E 174°51'0 0.0
2018-Apr-13 18:26S 36°43' E 174°51'0 0.1
2018-Apr-13 17:56S 36°43' E 174°51'0 0.1
2018-Apr-13 17:14S 36°43' E 174°51'0 1.3
2018-Apr-13 17:00S 36°43' E 174°51'0 0.3
2018-Apr-13 16:25S 36°43' E 174°51'0 0.2
2018-Apr-13 15:55S 36°43' E 174°51'0 0.1
2018-Apr-13 15:25S 36°43' E 174°51'0 0.1
2018-Apr-13 14:43S 36°43' E 174°51'0 0.0
2018-Apr-13 14:25S 36°43' E 174°51'0 0.0
2018-Apr-13 13:55S 36°43' E 174°51'0 0.0
2018-Apr-13 13:25S 36°43' E 174°51'0 0.1
2018-Apr-13 12:55S 36°43' E 174°51'0 0.0
2018-Apr-13 12:25S 36°43' E 174°51'0 0.1
2018-Apr-13 11:55S 36°43' E 174°51'0 0.0
2018-Apr-13 11:19S 36°43' E 174°51'0 0.0
2018-Apr-13 10:55S 36°43' E 174°51'0 0.0
2018-Apr-13 10:25S 36°43' E 174°51'0 0.0
2018-Apr-13 09:55S 36°43' E 174°51'0 0.0
2018-Apr-13 09:25S 36°43' E 174°51'0 0.1
2018-Apr-13 08:55S 36°43' E 174°51'0 1.0
2018-Apr-13 08:30S 36°43' E 174°51'5 8.8
2018-Apr-13 07:56S 36°39' E 174°56'410.3
2018-Apr-13 07:30S 36°35' E 174°58'510.3
2018-Apr-13 07:00S 36°30' E 174°59'510.2
2018-Apr-13 06:30S 36°25' E 174°59'510.7
2018-Apr-13 06:00S 36°20' E 174°58'510.9
2018-Apr-13 05:30S 36°14' E 174°56'  
Track history (hours):
 
Tides and Currents Weather Stations Pressure Air Temp Water Temp Dewpoint Dewpoint Depression Visibility Wind Speed Wind Dir Waves Ship Positions

Viking Amber

Last reported at 2018-Apr-20 15:21 UTC. Time now 2018-Apr-23 02:10 UTC.
Position S 36°22' E 175°19'.

Length 167 m; draft 7.3 m.

Type: Cargo ship. MMSI: 563255000.

Date/timePositionNaut miles runAvg speedWind from/ knotsBaromVisibWave heightAir tempDewpointWater temp
2018-Apr-20 15:21S 36°22' E 175°19'3 9.8
2018-Apr-20 15:00S 36°23' E 175°15'6 9.9
2018-Apr-20 14:24S 36°28' E 175°10'410.2
2018-Apr-20 13:58S 36°31' E 175°07'510.1
2018-Apr-20 13:30S 36°34' E 175°02'5 9.9
2018-Apr-20 13:00S 36°38' E 174°58'5 9.9
2018-Apr-20 12:30S 36°41' E 174°54'5 9.9
2018-Apr-20 12:00S 36°45' E 174°50'5 9.6
2018-Apr-20 11:31S 36°50' E 174°49'3 0.6
2018-Apr-20 07:16S 36°51' E 174°46'0 0.0
2018-Apr-20 06:58S 36°51' E 174°46'0 0.0
2018-Apr-20 05:58S 36°51' E 174°46'0 0.0
2018-Apr-20 05:04S 36°51' E 174°46'0 0.0
2018-Apr-20 04:34S 36°51' E 174°46'0 0.0
2018-Apr-20 04:22S 36°51' E 174°46'0 0.0
2018-Apr-20 03:58S 36°51' E 174°46'0 0.0
2018-Apr-20 03:10S 36°51' E 174°46'0 0.0
2018-Apr-20 02:52S 36°51' E 174°46'0 0.0
2018-Apr-20 02:22S 36°51' E 174°46'0 0.0
2018-Apr-20 01:58S 36°51' E 174°46'0 0.0
2018-Apr-20 01:22S 36°51' E 174°46'0 0.0
2018-Apr-19 17:58S 36°51' E 174°46'0 0.0
2018-Apr-19 17:28S 36°51' E 174°46'0 0.0
2018-Apr-19 16:58S 36°51' E 174°46'0 0.0
2018-Apr-19 16:22S 36°51' E 174°46'0 0.0
2018-Apr-19 15:58S 36°51' E 174°46'0 0.0
2018-Apr-19 15:28S 36°51' E 174°46'0 0.0
2018-Apr-19 14:58S 36°51' E 174°46'0 0.0
2018-Apr-19 14:28S 36°51' E 174°46'0 0.0
2018-Apr-19 13:46S 36°51' E 174°46'0 0.0
2018-Apr-19 13:28S 36°51' E 174°46'0 0.0
2018-Apr-19 12:58S 36°51' E 174°46'1 0.0
2018-Apr-17 18:28S 36°51' E 174°47'1 1.3
2018-Apr-17 17:59S 36°50' E 174°48'4 8.2
2018-Apr-17 17:30S 36°46' E 174°49'3 6.4
2018-Apr-17 17:00S 36°44' E 174°51'1 1.7
2018-Apr-17 16:30S 36°43' E 174°51'0 0.3
2018-Apr-17 15:59S 36°43' E 174°51'0 0.0
2018-Apr-17 15:29S 36°43' E 174°51'0 0.0
2018-Apr-17 14:59S 36°43' E 174°51'0 0.0
2018-Apr-17 14:29S 36°43' E 174°51'0 0.1
2018-Apr-17 13:59S 36°43' E 174°51'0 0.0
2018-Apr-17 13:29S 36°43' E 174°51'0 0.0
2018-Apr-17 12:59S 36°43' E 174°51'0 0.0
2018-Apr-17 12:29S 36°43' E 174°51'0 0.0
2018-Apr-17 11:59S 36°43' E 174°51'0 0.0
2018-Apr-17 11:29S 36°43' E 174°51'0 0.1
2018-Apr-17 10:47S 36°43' E 174°51'0 0.0
2018-Apr-17 10:29S 36°43' E 174°51'0 0.1
2018-Apr-17 09:59S 36°43' E 174°51'0 0.1
2018-Apr-17 09:29S 36°43' E 174°51'0 0.1
2018-Apr-17 08:59S 36°43' E 174°51'0 0.1
2018-Apr-17 08:29S 36°43' E 174°51'0 0.1
2018-Apr-17 07:59S 36°43' E 174°51'0 0.1
2018-Apr-17 07:29S 36°43' E 174°51'0 0.1
2018-Apr-17 06:59S 36°43' E 174°51'0 0.1
2018-Apr-17 06:29S 36°43' E 174°51'0 0.1
2018-Apr-17 05:59S 36°43' E 174°51'0 0.1
2018-Apr-17 05:29S 36°43' E 174°51'0 0.1
2018-Apr-17 04:59S 36°43' E 174°51'0 0.1
2018-Apr-17 04:29S 36°43' E 174°51'0 0.1
2018-Apr-17 03:59S 36°43' E 174°51'0 0.1
2018-Apr-17 03:29S 36°43' E 174°51'0 0.1
2018-Apr-17 02:59S 36°43' E 174°51'0 0.1
2018-Apr-17 02:29S 36°43' E 174°51'0 0.1
2018-Apr-17 01:59S 36°43' E 174°51'0 0.1
2018-Apr-17 01:29S 36°43' E 174°51'0 0.1
2018-Apr-17 00:59S 36°43' E 174°51'0 0.1
2018-Apr-17 00:29S 36°43' E 174°51'0 0.1
2018-Apr-16 23:59S 36°43' E 174°51'0 0.1
2018-Apr-16 23:29S 36°43' E 174°51'0 0.0
2018-Apr-16 22:59S 36°43' E 174°51'0 0.0
2018-Apr-16 22:29S 36°43' E 174°51'0 0.1
2018-Apr-16 21:59S 36°43' E 174°51'0 0.1
2018-Apr-16 21:29S 36°43' E 174°51'0 0.0
2018-Apr-16 20:59S 36°43' E 174°51'0 0.0
2018-Apr-16 20:29S 36°43' E 174°51'0 0.0
2018-Apr-16 19:59S 36°43' E 174°51'0 0.0
2018-Apr-16 19:29S 36°43' E 174°51'0 0.0
2018-Apr-16 18:59S 36°43' E 174°51'0 0.0
2018-Apr-16 18:29S 36°43' E 174°51'0 0.0
2018-Apr-16 17:59S 36°43' E 174°51'0 0.0
2018-Apr-16 17:29S 36°43' E 174°51'0 0.0
2018-Apr-16 16:59S 36°43' E 174°51'0 0.0
2018-Apr-16 16:29S 36°43' E 174°51'0 0.0
2018-Apr-16 15:59S 36°43' E 174°51'0 0.0
2018-Apr-16 15:29S 36°43' E 174°51'0 0.0
2018-Apr-16 14:59S 36°43' E 174°51'0 0.0
2018-Apr-16 14:29S 36°43' E 174°51'0 0.0
2018-Apr-16 13:59S 36°43' E 174°51'0 0.0
2018-Apr-16 13:29S 36°43' E 174°51'0 0.0
2018-Apr-16 12:59S 36°43' E 174°51'0 0.0
2018-Apr-16 12:29S 36°43' E 174°51'0 0.0
2018-Apr-16 11:59S 36°43' E 174°51'0 0.0
2018-Apr-16 11:29S 36°43' E 174°51'0 0.0
2018-Apr-16 10:59S 36°43' E 174°51'0 0.0
2018-Apr-16 10:29S 36°43' E 174°51'0 0.0
2018-Apr-16 09:59S 36°43' E 174°51'0 0.1
2018-Apr-16 09:29S 36°43' E 174°51'0 0.0
2018-Apr-16 08:59S 36°43' E 174°51'0 0.1
2018-Apr-16 08:29S 36°43' E 174°51'0 0.0
2018-Apr-16 07:59S 36°43' E 174°51'0 0.1
2018-Apr-16 07:29S 36°43' E 174°51'0 0.0
2018-Apr-16 06:59S 36°43' E 174°51'0 0.0
2018-Apr-16 06:23S 36°43' E 174°51'0 0.1
2018-Apr-16 05:59S 36°43' E 174°51'0 0.1
2018-Apr-16 05:29S 36°43' E 174°51'0 0.1
2018-Apr-16 04:59S 36°43' E 174°51'0 0.1
2018-Apr-16 04:29S 36°43' E 174°51'0 0.0
2018-Apr-16 03:59S 36°43' E 174°51'0 0.1
2018-Apr-16 03:29S 36°43' E 174°51'0 0.1
2018-Apr-16 02:59S 36°43' E 174°51'0 0.0
2018-Apr-16 02:29S 36°43' E 174°51'0 0.1
2018-Apr-16 01:59S 36°43' E 174°51'0 0.0
2018-Apr-16 01:29S 36°43' E 174°51'0 0.0
2018-Apr-16 00:59S 36°43' E 174°51'0 0.1
2018-Apr-16 00:29S 36°43' E 174°51'0 0.2
2018-Apr-15 23:59S 36°43' E 174°51'0 0.2
2018-Apr-15 23:29S 36°43' E 174°51'0 0.1
2018-Apr-15 22:59S 36°43' E 174°51'0 0.1
2018-Apr-15 22:29S 36°43' E 174°51'0 0.0
2018-Apr-15 21:59S 36°43' E 174°51'0 0.1
2018-Apr-15 21:29S 36°43' E 174°51'0 0.1
2018-Apr-15 20:59S 36°43' E 174°51'0 0.0
2018-Apr-15 20:29S 36°43' E 174°51'0 0.1
2018-Apr-15 19:59S 36°43' E 174°51'0 0.1
2018-Apr-15 19:29S 36°43' E 174°51'0 0.0
2018-Apr-15 18:59S 36°43' E 174°51'0 0.0
2018-Apr-15 18:29S 36°43' E 174°51'0 0.1
2018-Apr-15 17:59S 36°43' E 174°51'0 0.1
2018-Apr-15 17:29S 36°43' E 174°51'0 0.0
2018-Apr-15 16:59S 36°43' E 174°51'0 0.0
2018-Apr-15 16:29S 36°43' E 174°51'0 0.0
2018-Apr-15 15:59S 36°43' E 174°51'0 0.0
2018-Apr-15 15:29S 36°43' E 174°51'0 0.0
2018-Apr-15 14:59S 36°43' E 174°51'0 0.0
2018-Apr-15 14:29S 36°43' E 174°51'0 0.0
2018-Apr-15 13:59S 36°43' E 174°51'0 0.1
2018-Apr-15 13:29S 36°43' E 174°51'0 0.0
2018-Apr-15 12:59S 36°43' E 174°51'0 0.0
2018-Apr-15 12:29S 36°43' E 174°51'0 0.1
2018-Apr-15 11:59S 36°43' E 174°51'0 0.1
2018-Apr-15 11:29S 36°43' E 174°51'0 0.0
2018-Apr-15 10:59S 36°43' E 174°51'0 0.1
2018-Apr-15 10:29S 36°43' E 174°51'0 0.0
2018-Apr-15 09:59S 36°43' E 174°51'0 0.1
2018-Apr-15 09:29S 36°43' E 174°51'0 0.0
2018-Apr-15 08:59S 36°43' E 174°51'0 0.0
2018-Apr-15 08:29S 36°43' E 174°51'0 0.0
2018-Apr-15 07:59S 36°43' E 174°51'0 0.1
2018-Apr-15 07:29S 36°43' E 174°51'0 0.1
2018-Apr-15 06:59S 36°43' E 174°51'0 0.1
2018-Apr-15 06:29S 36°43' E 174°51'0 0.1
2018-Apr-15 05:59S 36°43' E 174°51'0 0.0
2018-Apr-15 05:29S 36°43' E 174°51'0 0.1
2018-Apr-15 04:59S 36°43' E 174°51'0 0.1
2018-Apr-15 04:29S 36°43' E 174°51'0 0.0
2018-Apr-15 03:59S 36°43' E 174°51'0 0.1
2018-Apr-15 03:29S 36°43' E 174°51'0 0.0
2018-Apr-15 02:59S 36°43' E 174°51'0 0.0
2018-Apr-15 02:29S 36°43' E 174°51'0 0.0
2018-Apr-15 01:59S 36°43' E 174°51'0 0.0
2018-Apr-15 01:29S 36°43' E 174°51'0 0.0
2018-Apr-15 00:59S 36°43' E 174°51'0 0.0
2018-Apr-15 00:29S 36°43' E 174°51'0 0.0
2018-Apr-14 23:59S 36°43' E 174°51'0 0.0
2018-Apr-14 23:29S 36°43' E 174°51'0 0.0
2018-Apr-14 22:59S 36°43' E 174°51'0 0.0
2018-Apr-14 22:29S 36°43' E 174°51'0 0.0
2018-Apr-14 21:59S 36°43' E 174°51'0 0.0
2018-Apr-14 21:29S 36°43' E 174°51'0 0.0
2018-Apr-14 20:59S 36°43' E 174°51'0 0.0
2018-Apr-14 20:29S 36°43' E 174°51'0 0.0
2018-Apr-14 19:59S 36°43' E 174°51'0 0.0
2018-Apr-14 19:23S 36°43' E 174°51'0 0.0
2018-Apr-14 18:59S 36°43' E 174°51'0 0.0
2018-Apr-14 18:23S 36°43' E 174°51'0 0.0
2018-Apr-14 17:59S 36°43' E 174°51'0 0.0
2018-Apr-14 17:29S 36°43' E 174°51'0 0.0
2018-Apr-14 16:59S 36°43' E 174°51'0 0.0
2018-Apr-14 16:29S 36°43' E 174°51'0 0.1
2018-Apr-14 15:59S 36°43' E 174°51'0 0.1
2018-Apr-14 15:29S 36°43' E 174°51'0 0.1
2018-Apr-14 14:59S 36°43' E 174°51'0 0.0
2018-Apr-14 14:29S 36°43' E 174°51'0 0.1
2018-Apr-14 13:59S 36°43' E 174°51'0 0.0
2018-Apr-14 13:29S 36°43' E 174°51'0 0.1
2018-Apr-14 12:59S 36°43' E 174°51'0 0.1
2018-Apr-14 12:29S 36°43' E 174°51'0 0.1
2018-Apr-14 11:59S 36°43' E 174°51'0 0.0
2018-Apr-14 11:29S 36°43' E 174°51'0 0.0
2018-Apr-14 10:59S 36°43' E 174°51'0 0.1
2018-Apr-14 10:29S 36°43' E 174°51'0 0.0
2018-Apr-14 09:59S 36°43' E 174°51'0 0.1
2018-Apr-14 09:29S 36°43' E 174°51'0 0.0
2018-Apr-14 08:59S 36°43' E 174°51'0 0.0
2018-Apr-14 08:29S 36°43' E 174°51'0 0.0
2018-Apr-14 07:58S 36°43' E 174°51'0 0.0
2018-Apr-14 07:29S 36°43' E 174°51'0 0.0
2018-Apr-14 06:59S 36°43' E 174°51'0 0.0
2018-Apr-14 06:29S 36°43' E 174°51'0 0.0
2018-Apr-14 05:59S 36°43' E 174°51'0 0.0
2018-Apr-14 05:29S 36°43' E 174°51'0 0.0
2018-Apr-14 04:59S 36°43' E 174°51'0 0.0
2018-Apr-14 04:29S 36°43' E 174°51'0 0.1
2018-Apr-14 03:59S 36°43' E 174°51'0 0.1
2018-Apr-14 03:29S 36°43' E 174°51'0 0.2
2018-Apr-14 02:59S 36°43' E 174°51'0 0.1
2018-Apr-14 02:28S 36°43' E 174°51'0 0.2
2018-Apr-14 02:00S 36°43' E 174°51'0 0.6
2018-Apr-14 01:26S 36°43' E 174°51'0 0.1
2018-Apr-14 00:56S 36°43' E 174°51'0 0.1
2018-Apr-14 00:26S 36°43' E 174°51'0 0.1
2018-Apr-13 23:50S 36°43' E 174°51'0 0.2
2018-Apr-13 23:26S 36°43' E 174°51'0 0.1
2018-Apr-13 22:44S 36°43' E 174°51'0 0.2
2018-Apr-13 22:26S 36°43' E 174°51'0 0.0
2018-Apr-13 21:56S 36°43' E 174°51'0 0.0
2018-Apr-13 21:26S 36°43' E 174°51'0 0.1
2018-Apr-13 20:56S 36°43' E 174°51'0 0.1
2018-Apr-13 20:20S 36°43' E 174°51'0 0.2
2018-Apr-13 19:56S 36°43' E 174°51'0 0.0
2018-Apr-13 19:26S 36°43' E 174°51'0 0.0
2018-Apr-13 18:56S 36°43' E 174°51'0 0.0
2018-Apr-13 18:26S 36°43' E 174°51'0 0.1
2018-Apr-13 17:56S 36°43' E 174°51'0 0.1
2018-Apr-13 17:14S 36°43' E 174°51'0 1.3
2018-Apr-13 17:00S 36°43' E 174°51'0 0.3
2018-Apr-13 16:25S 36°43' E 174°51'0 0.2
2018-Apr-13 15:55S 36°43' E 174°51'0 0.1
2018-Apr-13 15:25S 36°43' E 174°51'0 0.1
2018-Apr-13 14:43S 36°43' E 174°51'0 0.0
2018-Apr-13 14:25S 36°43' E 174°51'0 0.0
2018-Apr-13 13:55S 36°43' E 174°51'0 0.0
2018-Apr-13 13:25S 36°43' E 174°51'0 0.1
2018-Apr-13 12:55S 36°43' E 174°51'0 0.0
2018-Apr-13 12:25S 36°43' E 174°51'0 0.1
2018-Apr-13 11:55S 36°43' E 174°51'0 0.0
2018-Apr-13 11:19S 36°43' E 174°51'0 0.0
2018-Apr-13 10:55S 36°43' E 174°51'0 0.0
2018-Apr-13 10:25S 36°43' E 174°51'0 0.0
2018-Apr-13 09:55S 36°43' E 174°51'0 0.0
2018-Apr-13 09:25S 36°43' E 174°51'0 0.1
2018-Apr-13 08:55S 36°43' E 174°51'0 1.0
2018-Apr-13 08:30S 36°43' E 174°51'5 8.8
2018-Apr-13 07:56S 36°39' E 174°56'410.3
2018-Apr-13 07:30S 36°35' E 174°58'510.3
2018-Apr-13 07:00S 36°30' E 174°59'510.2
2018-Apr-13 06:30S 36°25' E 174°59'510.7
2018-Apr-13 06:00S 36°20' E 174°58'510.9
2018-Apr-13 05:30S 36°14' E 174°56'  

Dump ship's entire track history